createdAt,value
2018-09-19T00:02:09.122Z,100966.34
2018-09-19T00:04:38.811Z,100961.03
2018-09-19T00:07:08.401Z,100965.70
2018-09-19T00:09:39.662Z,100963.84
2018-09-19T00:12:08.019Z,100974.73
2018-09-19T00:14:36.413Z,100972.52
2018-09-19T00:17:04.758Z,100972.11
2018-09-19T00:19:33.102Z,100971.73
2018-09-19T00:22:01.495Z,100972.37
2018-09-19T00:24:29.890Z,100979.17
2018-09-19T00:26:58.208Z,100984.71
2018-09-19T00:29:26.526Z,100991.14
2018-09-19T00:31:54.898Z,100981.98
2018-09-19T00:34:23.278Z,100985.06
2018-09-19T00:36:51.653Z,100995.39
2018-09-19T00:39:19.994Z,100998.12
2018-09-19T00:41:48.358Z,101002.33
2018-09-19T00:44:16.691Z,101008.26
2018-09-19T00:46:45.060Z,101009.47
2018-09-19T00:49:13.400Z,101005.95
2018-09-19T00:51:41.736Z,101011.25
2018-09-19T00:54:10.071Z,101006.25
2018-09-19T00:56:38.407Z,101018.84
2018-09-19T00:59:06.743Z,101019.90
2018-09-19T01:01:35.135Z,101022.87
2018-09-19T01:04:03.500Z,101028.77
2018-09-19T01:06:31.898Z,101031.61
2018-09-19T01:09:00.759Z,101028.62
2018-09-19T01:11:29.106Z,101033.69
2018-09-19T01:13:57.453Z,101036.19
2018-09-19T01:16:25.798Z,101038.41
2018-09-19T01:18:54.155Z,101036.92
2018-09-19T01:21:22.507Z,101041.91
2018-09-19T01:23:50.848Z,101050.92
2018-09-19T01:26:19.199Z,101054.16
2018-09-19T01:28:47.526Z,101062.11
2018-09-19T01:31:15.861Z,101068.05
2018-09-19T01:33:44.218Z,101081.88
2018-09-19T01:36:12.540Z,101093.44
2018-09-19T01:38:40.924Z,101089.14
2018-09-19T01:41:09.287Z,101093.95
2018-09-19T01:43:37.621Z,101109.68
2018-09-19T01:46:07.168Z,101108.72
2018-09-19T01:48:35.525Z,101111.54
2018-09-19T01:51:03.872Z,101111.59
2018-09-19T01:53:32.194Z,101113.45
2018-09-19T01:56:00.546Z,101127.42
2018-09-19T01:58:29.422Z,101126.16
2018-09-19T02:00:57.772Z,101140.02
2018-09-19T02:03:26.106Z,101150.03
2018-09-19T02:05:54.443Z,101146.81
2018-09-19T02:08:22.812Z,101149.27
2018-09-19T02:10:51.157Z,101161.01
2018-09-19T02:13:19.502Z,101154.20
2018-09-19T02:15:47.851Z,101159.77
2018-09-19T02:18:16.293Z,101165.06
2018-09-19T02:20:44.657Z,101168.16
2018-09-19T02:23:13.015Z,101164.28
2018-09-19T02:25:41.355Z,101178.60
2018-09-19T02:28:09.717Z,101179.19
2018-09-19T02:30:38.090Z,101174.23
2018-09-19T02:33:06.435Z,101175.32
2018-09-19T02:35:34.770Z,101181.47
2018-09-19T02:38:03.128Z,101178.38
2018-09-19T02:40:31.459Z,101184.41
2018-09-19T02:42:59.780Z,101173.52
2018-09-19T02:45:28.103Z,101182.58
2018-09-19T02:47:56.539Z,101184.86
2018-09-19T02:50:24.916Z,101189.59
2018-09-19T02:52:56.187Z,101188.16
2018-09-19T02:55:25.389Z,101184.24
2018-09-19T02:57:54.185Z,101197.97
2018-09-19T03:00:22.556Z,101189.77
2018-09-19T03:02:51.386Z,101189.92
2018-09-19T03:05:19.943Z,101195.79
2018-09-19T03:07:48.316Z,101200.70
2018-09-19T03:10:16.661Z,101191.92
2018-09-19T03:12:45.022Z,101192.91
2018-09-19T03:15:13.387Z,101196.90
2018-09-19T03:17:41.858Z,101194.72
2018-09-19T03:20:10.251Z,101205.36
2018-09-19T03:22:38.630Z,101213.63
2018-09-19T03:25:07.007Z,101216.06
2018-09-19T03:27:35.361Z,101219.66
2018-09-19T03:30:03.718Z,101225.91
2018-09-19T03:32:32.041Z,101221.79
2018-09-19T03:35:00.420Z,101225.25
2018-09-19T03:37:28.786Z,101226.89
2018-09-19T03:39:57.115Z,101228.08
2018-09-19T03:42:26.033Z,101236.44
2018-09-19T03:44:54.389Z,101232.97
2018-09-19T03:47:22.747Z,101234.58
2018-09-19T03:49:51.882Z,101232.56
2018-09-19T03:52:20.236Z,101226.75
2018-09-19T03:54:48.614Z,101228.14
2018-09-19T03:57:16.987Z,101239.80
2018-09-19T03:59:45.305Z,101239.39
2018-09-19T04:02:13.693Z,101238.88
2018-09-19T04:04:42.079Z,101247.45
2018-09-19T04:07:10.430Z,101250.66
2018-09-19T04:09:38.808Z,101253.66
2018-09-19T04:12:07.212Z,101252.95
2018-09-19T04:14:35.587Z,101246.62
2018-09-19T04:17:03.963Z,101247.34
2018-09-19T04:19:32.306Z,101253.64
2018-09-19T04:22:00.631Z,101256.55
2018-09-19T04:24:28.989Z,101263.71
2018-09-19T04:26:57.339Z,101263.89
2018-09-19T04:29:25.689Z,101271.77
2018-09-19T04:31:54.058Z,101262.65
2018-09-19T04:34:22.405Z,101263.53
2018-09-19T04:36:51.138Z,101264.02
2018-09-19T04:39:19.474Z,101271.00
2018-09-19T04:41:47.837Z,101266.86
2018-09-19T04:44:16.243Z,101274.03
2018-09-19T04:46:44.575Z,101279.09
2018-09-19T04:49:12.907Z,101279.20
2018-09-19T04:51:41.355Z,101273.96
2018-09-19T04:54:09.840Z,101285.20
2018-09-19T04:56:38.647Z,101272.98
2018-09-19T04:59:06.987Z,101278.22
2018-09-19T05:01:35.319Z,101287.91
2018-09-19T05:04:03.653Z,101287.91
2018-09-19T05:06:32.013Z,101290.81
2018-09-19T05:09:00.368Z,101293.94
2018-09-19T05:11:28.739Z,101296.05
2018-09-19T05:13:57.079Z,101301.03
2018-09-19T05:16:25.465Z,101300.91
2018-09-19T05:18:53.800Z,101296.84
2018-09-19T05:21:22.145Z,101307.72
2018-09-19T05:23:50.509Z,101303.36
2018-09-19T05:26:19.102Z,101305.17
2018-09-19T05:28:47.457Z,101316.22
2018-09-19T05:31:15.811Z,101318.55
2018-09-19T05:33:44.321Z,101310.34
2018-09-19T05:36:12.625Z,101317.58
2018-09-19T05:38:40.969Z,101320.97
2018-09-19T05:41:09.657Z,101317.49
2018-09-19T05:43:38.015Z,101323.30
2018-09-19T05:46:06.620Z,101328.36
2018-09-19T05:48:35.592Z,101331.04
2018-09-19T05:51:03.942Z,101332.13
2018-09-19T05:53:32.293Z,101336.84
2018-09-19T05:56:00.739Z,101335.41
2018-09-19T05:58:29.079Z,101334.00
2018-09-19T06:00:57.458Z,101335.15
2018-09-19T06:03:25.792Z,101338.84
2018-09-19T06:05:54.144Z,101340.55
2018-09-19T06:08:22.491Z,101338.37
2018-09-19T06:10:50.859Z,101341.45
2018-09-19T06:13:19.226Z,101344.12
2018-09-19T06:15:48.175Z,101350.25
2018-09-19T06:18:16.524Z,101348.59
2018-09-19T06:20:44.899Z,101349.99
2018-09-19T06:23:13.252Z,101348.92
2018-09-19T06:25:41.596Z,101358.28
2018-09-19T06:28:09.966Z,101360.05
2018-09-19T06:30:38.313Z,101363.03
2018-09-19T06:33:06.827Z,101362.49
2018-09-19T06:35:35.165Z,101366.36
2018-09-19T06:38:03.520Z,101370.30
2018-09-19T06:40:31.907Z,101374.81
2018-09-19T06:43:00.551Z,101374.91
2018-09-19T06:45:28.909Z,101379.70
2018-09-19T06:47:57.303Z,101382.75
2018-09-19T06:50:25.700Z,101379.47
2018-09-19T06:52:54.051Z,101377.12
2018-09-19T06:55:22.375Z,101387.03
2018-09-19T06:57:51.138Z,101391.55
2018-09-19T07:00:19.529Z,101395.41
2018-09-19T07:02:47.996Z,101393.59
2018-09-19T07:05:16.335Z,101396.66
2018-09-19T07:07:44.726Z,101394.30
2018-09-19T07:10:13.060Z,101401.51
2018-09-19T07:12:41.434Z,101403.07
2018-09-19T07:15:09.784Z,101403.64
2018-09-19T07:17:38.140Z,101403.27
2018-09-19T07:20:06.655Z,101404.36
2018-09-19T07:22:34.988Z,101401.43
2018-09-19T07:25:03.412Z,101400.70
2018-09-19T07:27:31.784Z,101413.70
2018-09-19T07:30:00.130Z,101414.36
2018-09-19T07:32:28.510Z,101416.77
2018-09-19T07:34:56.857Z,101413.43
2018-09-19T07:37:25.199Z,101411.16
2018-09-19T07:39:53.545Z,101419.18
2018-09-19T07:42:21.927Z,101414.78
2018-09-19T07:44:50.258Z,101420.05
2018-09-19T07:47:18.597Z,101425.02
2018-09-19T07:49:47.095Z,101421.27
2018-09-19T07:52:28.712Z,101425.61
2018-09-19T07:54:57.315Z,101430.22
2018-09-19T07:57:29.499Z,101429.73
2018-09-19T07:59:57.899Z,101425.75
2018-09-19T08:02:26.267Z,101425.73
2018-09-19T08:04:55.321Z,101426.04
2018-09-19T08:07:23.756Z,101429.47
2018-09-19T08:09:52.118Z,101428.52
2018-09-19T08:12:20.560Z,101431.75
2018-09-19T08:14:49.040Z,101431.15
2018-09-19T08:17:17.404Z,101426.17
2018-09-19T08:19:45.756Z,101427.47
2018-09-19T08:22:14.121Z,101427.77
2018-09-19T08:24:42.559Z,101427.66
2018-09-19T08:27:10.927Z,101421.75
2018-09-19T08:29:39.305Z,101420.02
2018-09-19T08:32:07.638Z,101423.71
2018-09-19T08:34:36.152Z,101417.75
2018-09-19T08:37:04.569Z,101415.06
2018-09-19T08:39:33.113Z,101421.08
2018-09-19T08:42:01.565Z,101416.48
2018-09-19T08:44:29.905Z,101418.22
2018-09-19T08:46:58.288Z,101417.81
2018-09-19T08:49:26.677Z,101420.22
2018-09-19T08:51:55.025Z,101417.47
2018-09-19T08:54:23.410Z,101419.52
2018-09-19T08:56:51.819Z,101427.25
2018-09-19T08:59:20.227Z,101418.35
2018-09-19T09:01:48.865Z,101424.88
2018-09-19T09:04:17.236Z,101418.00
2018-09-19T09:06:45.689Z,101424.16
2018-09-19T09:09:14.010Z,101422.31
2018-09-19T09:11:42.389Z,101422.95
2018-09-19T09:14:10.794Z,101424.84
2018-09-19T09:16:39.175Z,101424.08
2018-09-19T09:19:07.552Z,101425.45
2018-09-19T09:21:35.948Z,101416.53
2018-09-19T09:24:04.311Z,101427.14
2018-09-19T09:26:32.676Z,101419.86
2018-09-19T09:29:01.029Z,101411.67
2018-09-19T09:31:29.376Z,101414.44
2018-09-19T09:33:57.860Z,101411.66
2018-09-19T09:36:26.308Z,101411.83
2018-09-19T09:38:56.297Z,101413.77
2018-09-19T09:41:24.672Z,101416.08
2018-09-19T09:43:53.020Z,101415.11
2018-09-19T09:46:21.402Z,101410.54
2018-09-19T09:48:49.762Z,101404.84
2018-09-19T09:51:18.145Z,101407.97
2018-09-19T09:53:46.500Z,101407.38
2018-09-19T09:56:14.847Z,101401.52
2018-09-19T09:58:44.211Z,101404.95
2018-09-19T10:01:12.629Z,101399.61
2018-09-19T10:03:41.006Z,101396.53
2018-09-19T10:06:09.382Z,101395.80
2018-09-19T10:08:37.847Z,101394.45
2018-09-19T10:11:06.804Z,101392.67
2018-09-19T10:13:35.224Z,101393.17
2018-09-19T10:16:03.585Z,101399.59
2018-09-19T10:18:32.028Z,101392.03
2018-09-19T10:21:00.385Z,101390.70
2018-09-19T10:23:28.779Z,101390.04
2018-09-19T10:25:57.156Z,101395.38
2018-09-19T10:28:25.532Z,101386.53
2018-09-19T10:30:53.925Z,101384.56
2018-09-19T10:33:22.267Z,101379.52
2018-09-19T10:35:50.640Z,101375.77
2018-09-19T10:38:19.579Z,101375.20
2018-09-19T10:40:47.923Z,101377.14
2018-09-19T10:43:16.323Z,101364.02
2018-09-19T10:45:44.690Z,101356.04
2018-09-19T10:48:13.083Z,101355.45
2018-09-19T10:50:41.467Z,101350.73
2018-09-19T10:53:09.860Z,101353.73
2018-09-19T10:55:38.247Z,101349.98
2018-09-19T10:58:06.610Z,101348.95
2018-09-19T11:00:34.975Z,101361.27
2018-09-19T11:03:03.326Z,101356.88
2018-09-19T11:05:31.776Z,101352.48
2018-09-19T11:08:00.159Z,101353.19
2018-09-19T11:10:28.509Z,101352.30
2018-09-19T11:12:56.884Z,101352.99
2018-09-19T11:15:25.792Z,101353.38
2018-09-19T11:17:54.110Z,101355.28
2018-09-19T11:20:22.470Z,101347.20
2018-09-19T11:22:50.797Z,101342.53
2018-09-19T11:25:19.156Z,101336.91
2018-09-19T11:27:47.505Z,101333.83
2018-09-19T11:30:15.849Z,101338.22
2018-09-19T11:32:44.189Z,101338.41
2018-09-19T11:35:12.580Z,101329.45
2018-09-19T11:37:40.971Z,101330.78
2018-09-19T11:40:09.398Z,101334.92
2018-09-19T11:42:37.748Z,101337.60
2018-09-19T11:45:06.125Z,101330.51
2018-09-19T11:47:34.536Z,101333.59
2018-09-19T11:50:02.879Z,101335.33
2018-09-19T11:52:31.231Z,101333.98
2018-09-19T11:54:59.566Z,101329.56
2018-09-19T11:57:27.947Z,101326.80
2018-09-19T11:59:56.290Z,101328.48
2018-09-19T12:02:24.680Z,101316.97
2018-09-19T12:04:53.050Z,101319.17
2018-09-19T12:07:21.448Z,101311.93
2018-09-19T12:09:49.810Z,101316.69
2018-09-19T12:12:18.160Z,101314.61
2018-09-19T12:14:46.517Z,101312.87
2018-09-19T12:17:14.923Z,101308.37
2018-09-19T12:19:43.586Z,101303.21
2018-09-19T12:22:11.950Z,101300.09
2018-09-19T12:24:40.328Z,101289.78
2018-09-19T12:27:08.705Z,101298.16
2018-09-19T12:29:37.060Z,101294.55
2018-09-19T12:32:06.144Z,101293.98
2018-09-19T12:34:35.452Z,101295.05
2018-09-19T12:37:03.961Z,101306.40
2018-09-19T12:39:32.329Z,101295.17
2018-09-19T12:42:00.650Z,101292.64
2018-09-19T12:44:28.996Z,101287.05
2018-09-19T12:46:57.348Z,101289.70
2018-09-19T12:49:25.739Z,101286.75
2018-09-19T12:51:54.132Z,101283.11
2018-09-19T12:54:22.483Z,101284.64
2018-09-19T12:56:50.828Z,101290.52
2018-09-19T12:59:19.317Z,101292.25
2018-09-19T13:01:47.700Z,101282.38
2018-09-19T13:04:16.684Z,101278.78
2018-09-19T13:06:45.065Z,101277.41
2018-09-19T13:09:13.443Z,101273.96
2018-09-19T13:11:41.933Z,101263.77
2018-09-19T13:14:10.348Z,101257.72
2018-09-19T13:16:38.820Z,101253.06
2018-09-19T13:19:07.192Z,101253.09
2018-09-19T13:21:35.605Z,101241.52
2018-09-19T13:24:03.986Z,101246.71
2018-09-19T13:26:32.367Z,101243.40
2018-09-19T13:29:00.817Z,101240.94
2018-09-19T13:31:29.256Z,101246.84
2018-09-19T13:33:57.663Z,101245.09
2018-09-19T13:36:27.656Z,101248.89
2018-09-19T13:38:56.484Z,101253.20
2018-09-19T13:41:24.962Z,101245.39
2018-09-19T13:43:53.341Z,101252.84
2018-09-19T13:46:21.834Z,101242.94
2018-09-19T13:48:54.698Z,101246.95
2018-09-19T13:51:24.794Z,101241.04
2018-09-19T13:53:53.377Z,101236.02
2018-09-19T13:56:22.075Z,101236.69
2018-09-19T13:58:50.608Z,101222.24
2018-09-19T14:01:19.018Z,101221.70
2018-09-19T14:03:47.393Z,101216.73
2018-09-19T14:06:15.753Z,101223.94
2018-09-19T14:08:44.251Z,101219.76
2018-09-19T14:11:12.640Z,101214.62
2018-09-19T14:13:41.019Z,101215.35
2018-09-19T14:16:09.588Z,101212.89
2018-09-19T14:18:37.992Z,101211.20
2018-09-19T14:21:06.370Z,101208.73
2018-09-19T14:23:34.749Z,101211.22
2018-09-19T14:26:03.147Z,101214.41
2018-09-19T14:28:31.589Z,101212.20
2018-09-19T14:30:59.953Z,101209.82
2018-09-19T14:33:28.359Z,101207.48
2018-09-19T14:35:56.793Z,101209.38
2018-09-19T14:38:25.327Z,101202.84
2018-09-19T14:40:54.558Z,101212.53
2018-09-19T14:43:22.911Z,101205.59
2018-09-19T14:45:51.263Z,101207.31
2018-09-19T14:48:19.667Z,101200.55
2018-09-19T14:50:48.052Z,101203.78
2018-09-19T14:53:16.474Z,101208.92
2018-09-19T14:55:44.838Z,101205.14
2018-09-19T14:58:13.197Z,101196.02
2018-09-19T15:00:41.564Z,101196.19
2018-09-19T15:03:10.646Z,101198.57
2018-09-19T15:05:38.968Z,101195.96
2018-09-19T15:08:07.343Z,101202.84
2018-09-19T15:10:35.689Z,101194.09
2018-09-19T15:13:04.109Z,101188.93
2018-09-19T15:15:33.030Z,101183.94
2018-09-19T15:18:01.418Z,101171.80
2018-09-19T15:20:29.816Z,101171.41
2018-09-19T15:22:58.187Z,101172.43
2018-09-19T15:25:26.550Z,101163.19
2018-09-19T15:27:54.890Z,101164.84
2018-09-19T15:30:23.253Z,101155.83
2018-09-19T15:32:51.603Z,101157.92
2018-09-19T15:35:19.964Z,101157.90
2018-09-19T15:37:48.310Z,101163.03
2018-09-19T15:40:16.648Z,101157.36
2018-09-19T15:42:45.049Z,101166.16
2018-09-19T15:45:13.442Z,101165.07
2018-09-19T15:47:41.850Z,101158.98
2018-09-19T15:50:10.251Z,101156.92
2018-09-19T15:52:38.748Z,101154.17
2018-09-19T15:55:07.649Z,101146.74
2018-09-19T15:57:36.140Z,101150.58
2018-09-19T16:00:04.881Z,101145.94
2018-09-19T16:02:33.272Z,101147.69
2018-09-19T16:05:01.672Z,101142.63
2018-09-19T16:07:30.251Z,101147.25
2018-09-19T16:09:58.672Z,101141.74
2018-09-19T16:12:27.050Z,101142.40
2018-09-19T16:14:55.650Z,101143.56
2018-09-19T16:17:24.008Z,101143.40
2018-09-19T16:19:52.424Z,101140.95
2018-09-19T16:22:21.370Z,101148.80
2018-09-19T16:24:49.932Z,101144.29
2018-09-19T16:27:18.298Z,101146.73
2018-09-19T16:29:46.949Z,101145.80
2018-09-19T16:32:15.282Z,101141.12
2018-09-19T16:34:43.621Z,101147.92
2018-09-19T16:37:11.954Z,101144.41
2018-09-19T16:39:40.453Z,101145.75
2018-09-19T16:42:08.834Z,101149.48
2018-09-19T16:44:37.348Z,101147.72
2018-09-19T16:47:06.151Z,101149.40
2018-09-19T16:49:34.527Z,101144.84
2018-09-19T16:52:02.931Z,101141.19
2018-09-19T16:54:31.701Z,101144.54
2018-09-19T16:57:00.161Z,101148.45
2018-09-19T16:59:28.576Z,101144.75
2018-09-19T17:01:57.016Z,101149.68
2018-09-19T17:04:25.495Z,101141.90
2018-09-19T17:06:53.880Z,101149.50
2018-09-19T17:09:22.364Z,101151.49
2018-09-19T17:11:50.713Z,101154.14
2018-09-19T17:14:19.070Z,101153.41
2018-09-19T17:16:47.469Z,101155.91
2018-09-19T17:19:15.945Z,101158.67
2018-09-19T17:21:44.298Z,101160.50
2018-09-19T17:24:13.580Z,101154.09
2018-09-19T17:26:42.143Z,101143.95
2018-09-19T17:29:10.553Z,101149.39
2018-09-19T17:31:38.936Z,101149.36
2018-09-19T17:34:07.303Z,101154.94
2018-09-19T17:36:35.863Z,101158.26
2018-09-19T17:39:06.523Z,101165.21
2018-09-19T17:41:34.879Z,101156.17
2018-09-19T17:44:04.283Z,101160.38
2018-09-19T17:46:32.686Z,101154.67
2018-09-19T17:49:01.216Z,101158.64
2018-09-19T17:51:29.591Z,101158.80
2018-09-19T17:53:57.935Z,101157.52
2018-09-19T17:56:26.375Z,101172.80
2018-09-19T17:58:54.969Z,101164.63
2018-09-19T18:01:23.320Z,101167.76
2018-09-19T18:03:51.667Z,101168.39
2018-09-19T18:06:20.127Z,101174.66
2018-09-19T18:08:48.465Z,101176.54
2018-09-19T18:11:16.786Z,101172.98
2018-09-19T18:13:45.203Z,101175.77
2018-09-19T18:16:13.580Z,101172.32
2018-09-19T18:18:42.200Z,101174.12
2018-09-19T18:21:11.373Z,101177.92
2018-09-19T18:23:39.722Z,101179.48
2018-09-19T18:26:08.152Z,101184.34
2018-09-19T18:28:36.508Z,101187.01
2018-09-19T18:31:04.940Z,101182.50
2018-09-19T18:33:33.352Z,101179.22
2018-09-19T18:36:01.699Z,101184.85
2018-09-19T18:38:30.091Z,101184.62
2018-09-19T18:40:58.447Z,101188.02
2018-09-19T18:43:26.794Z,101185.09
2018-09-19T18:45:55.155Z,101187.36
2018-09-19T18:48:23.537Z,101192.05
2018-09-19T18:50:51.916Z,101188.45
2018-09-19T18:53:20.534Z,101186.50
2018-09-19T18:55:48.956Z,101193.27
2018-09-19T18:58:17.305Z,101190.02
2018-09-19T19:10:44.872Z,101190.02
2018-09-19T19:13:13.272Z,101200.56
2018-09-19T19:15:41.615Z,101202.44
2018-09-19T19:18:10.039Z,101204.23
2018-09-19T19:20:38.456Z,101193.03
2018-09-19T19:23:06.898Z,101202.42
2018-09-19T19:25:35.240Z,101203.78
2018-09-19T19:28:03.608Z,101204.68
2018-09-19T19:30:32.137Z,101206.05
2018-09-19T19:34:29.590Z,101208.08
2018-09-19T19:36:58.595Z,101206.97
2018-09-19T19:39:27.034Z,101209.11
2018-09-19T19:41:55.411Z,101208.25
2018-09-19T19:44:23.759Z,101205.39
2018-09-19T19:46:52.163Z,101217.20
2018-09-19T19:49:20.522Z,101210.42
2018-09-19T19:51:48.880Z,101210.06
2018-09-19T19:54:17.246Z,101213.69
2018-09-19T19:56:45.678Z,101204.25
2018-09-19T19:59:14.273Z,101207.41
2018-09-19T20:01:42.619Z,101199.70
2018-09-19T20:04:10.950Z,101210.91
2018-09-19T20:06:39.321Z,101213.77
2018-09-19T20:09:08.940Z,101213.05
2018-09-19T20:11:37.702Z,101217.67
2018-09-19T20:14:07.004Z,101222.34
2018-09-19T20:16:35.407Z,101225.58
2018-09-19T20:19:03.881Z,101224.88
2018-09-19T20:21:32.280Z,101231.16
2018-09-19T20:24:00.660Z,101229.89
2018-09-19T20:26:29.013Z,101233.50
2018-09-19T20:28:57.398Z,101228.94
2018-09-19T20:31:25.844Z,101237.28
2018-09-19T20:33:54.212Z,101236.28
2018-09-19T20:36:22.555Z,101227.11
2018-09-19T20:38:50.970Z,101236.69
2018-09-19T20:41:19.453Z,101235.69
2018-09-19T20:43:47.784Z,101230.86
2018-09-19T20:46:16.681Z,101234.47
2018-09-19T20:48:45.003Z,101231.91
2018-09-19T20:51:13.500Z,101227.06
2018-09-19T20:53:41.872Z,101228.09
2018-09-19T20:56:10.207Z,101228.96
2018-09-19T20:58:38.751Z,101229.22
2018-09-19T21:01:07.304Z,101232.30
2018-09-19T21:03:35.653Z,101232.09
2018-09-19T21:06:04.072Z,101232.98
2018-09-19T21:08:32.651Z,101229.89
2018-09-19T21:11:01.151Z,101228.27
2018-09-19T21:13:29.547Z,101234.34
2018-09-19T21:15:57.917Z,101234.48
2018-09-19T21:18:26.268Z,101233.37
2018-09-19T21:20:54.677Z,101236.38
2018-09-19T21:23:23.109Z,101233.53
2018-09-19T21:25:51.430Z,101239.38
2018-09-19T21:28:19.836Z,101240.27
2018-09-19T21:30:48.178Z,101241.35
2018-09-19T21:33:16.668Z,101241.99
2018-09-19T21:35:45.109Z,101239.51
2018-09-19T21:38:13.519Z,101241.22
2018-09-19T21:40:41.919Z,101240.36
2018-09-19T21:43:13.331Z,101236.87
2018-09-19T21:45:41.713Z,101237.88
2018-09-19T21:48:10.134Z,101235.28
2018-09-19T21:50:42.689Z,101239.26
2018-09-19T21:55:40.733Z,101246.06
2018-09-19T21:58:09.176Z,101241.97
2018-09-19T22:00:38.379Z,101238.16
2018-09-19T22:03:11.980Z,101231.43
2018-09-19T22:06:18.405Z,101234.17
2018-09-19T22:08:46.759Z,101234.66
2018-09-19T22:11:15.136Z,101237.15
2018-09-19T22:13:43.489Z,101230.20
2018-09-19T22:16:19.320Z,101230.44
2018-09-19T22:18:48.465Z,101234.17
2018-09-19T22:24:30.997Z,101232.19
2018-09-19T22:27:00.970Z,101231.43
2018-09-19T22:32:23.554Z,101229.08
2018-09-19T22:34:52.848Z,101233.54
2018-09-19T22:37:22.091Z,101225.23
2018-09-19T22:39:51.170Z,101226.45
2018-09-19T22:42:20.454Z,101232.05
2018-09-19T22:44:51.568Z,101232.19
2018-09-19T22:47:20.858Z,101225.47
2018-09-19T22:49:51.427Z,101229.56
2018-09-19T22:52:20.590Z,101231.66
2018-09-19T22:54:49.877Z,101228.67
2018-09-19T22:57:19.128Z,101218.83
2018-09-19T22:59:48.871Z,101229.00
2018-09-19T23:02:19.946Z,101220.69
2018-09-19T23:04:50.703Z,101216.96
2018-09-19T23:07:20.096Z,101220.56
2018-09-19T23:09:50.000Z,101219.69
2018-09-19T23:12:20.688Z,101224.28
2018-09-19T23:14:51.599Z,101212.02
2018-09-19T23:17:21.757Z,101215.84
2018-09-19T23:19:52.714Z,101217.83
2018-09-19T23:22:21.947Z,101221.66
2018-09-19T23:24:51.867Z,101219.16
2018-09-19T23:27:21.652Z,101211.98
2018-09-19T23:29:51.800Z,101215.94
2018-09-19T23:32:22.784Z,101215.20
2018-09-19T23:34:52.898Z,101214.70
2018-09-19T23:37:23.152Z,101221.62
2018-09-19T23:39:53.165Z,101215.53
2018-09-19T23:42:24.167Z,101220.75
2018-09-19T23:44:54.144Z,101227.06
2018-09-19T23:47:24.238Z,101219.62
2018-09-19T23:49:54.527Z,101225.70
2018-09-19T23:52:25.556Z,101223.44
2018-09-19T23:54:55.967Z,101223.80
2018-09-19T23:57:26.199Z,101224.03
2018-09-19T23:59:57.018Z,101224.80
